createdAt,value
2018-09-24T00:00:37.724Z,0.00
2018-09-24T00:01:37.647Z,0.00
2018-09-24T00:02:37.570Z,0.00
2018-09-24T00:03:37.494Z,0.00
2018-09-24T00:04:37.417Z,0.00
2018-09-24T00:05:37.331Z,0.00
2018-09-24T00:06:37.260Z,0.00
2018-09-24T00:07:37.191Z,0.00
2018-09-24T00:08:37.106Z,0.00
2018-09-24T00:09:37.027Z,0.00
2018-09-24T00:10:36.947Z,0.00
2018-09-24T00:11:36.875Z,0.00
2018-09-24T00:12:36.796Z,0.00
2018-09-24T00:13:36.725Z,0.00
2018-09-24T00:14:36.642Z,0.00
2018-09-24T00:15:36.571Z,0.00
2018-09-24T00:16:36.487Z,0.00
2018-09-24T00:17:36.409Z,0.00
2018-09-24T00:18:36.330Z,0.00
2018-09-24T00:19:36.256Z,0.00
2018-09-24T00:20:36.179Z,0.00
2018-09-24T00:21:36.101Z,0.00
2018-09-24T00:22:36.025Z,0.00
2018-09-24T00:23:35.947Z,0.00
2018-09-24T00:24:35.881Z,0.00
2018-09-24T00:25:35.792Z,0.00
2018-09-24T00:26:35.717Z,0.00
2018-09-24T00:27:35.641Z,0.00
2018-09-24T00:28:35.561Z,0.00
2018-09-24T00:29:35.482Z,0.00
2018-09-24T00:30:35.409Z,0.00
2018-09-24T00:31:35.332Z,0.00
2018-09-24T00:32:35.253Z,0.00
2018-09-24T00:33:35.176Z,0.00
2018-09-24T00:34:35.097Z,0.00
2018-09-24T00:35:35.023Z,0.00
2018-09-24T00:36:34.946Z,0.00
2018-09-24T00:37:34.868Z,0.00
2018-09-24T00:38:34.791Z,0.00
2018-09-24T00:39:34.718Z,0.00
2018-09-24T00:40:34.633Z,0.00
2018-09-24T00:41:34.569Z,0.00
2018-09-24T00:42:34.484Z,0.00
2018-09-24T00:43:34.403Z,0.00
2018-09-24T00:44:34.325Z,0.00
2018-09-24T00:45:34.248Z,0.00
2018-09-24T00:46:34.173Z,0.00
2018-09-24T00:47:34.093Z,0.00
2018-09-24T00:48:34.016Z,0.00
2018-09-24T00:49:33.942Z,0.00
2018-09-24T00:50:33.861Z,0.00
2018-09-24T00:51:33.787Z,0.00
2018-09-24T00:52:33.707Z,0.00
2018-09-24T00:53:33.632Z,0.00
2018-09-24T00:54:33.561Z,0.00
2018-09-24T00:55:33.475Z,0.00
2018-09-24T00:56:33.398Z,0.00
2018-09-24T00:57:33.317Z,0.00
2018-09-24T00:58:33.249Z,0.00
2018-09-24T00:59:33.208Z,0.00
2018-09-24T01:00:33.089Z,0.00
2018-09-24T01:01:33.010Z,0.00
2018-09-24T01:02:32.932Z,0.00
2018-09-24T01:03:32.857Z,0.00
2018-09-24T01:04:32.780Z,0.00
2018-09-24T01:05:32.709Z,0.00
2018-09-24T01:06:32.624Z,0.00
2018-09-24T01:07:32.548Z,0.00
2018-09-24T01:08:32.478Z,0.00
2018-09-24T01:09:32.393Z,0.00
2018-09-24T01:10:32.316Z,0.00
2018-09-24T01:11:32.237Z,0.00
2018-09-24T01:12:32.160Z,0.00
2018-09-24T01:13:32.082Z,0.00
2018-09-24T01:14:32.005Z,0.00
2018-09-24T01:15:31.931Z,0.00
2018-09-24T01:16:31.861Z,0.00
2018-09-24T01:17:31.773Z,0.00
2018-09-24T01:18:31.699Z,0.00
2018-09-24T01:19:31.619Z,0.00
2018-09-24T01:20:31.540Z,0.00
2018-09-24T01:21:31.464Z,0.00
2018-09-24T01:22:31.387Z,0.00
2018-09-24T01:23:31.310Z,0.00
2018-09-24T01:24:31.234Z,0.00
2018-09-24T01:25:31.154Z,0.00
2018-09-24T01:26:31.073Z,0.00
2018-09-24T01:27:31.004Z,0.00
2018-09-24T01:28:30.921Z,0.00
2018-09-24T01:29:30.852Z,0.00
2018-09-24T01:30:30.767Z,0.00
2018-09-24T01:31:30.689Z,0.00
2018-09-24T01:32:30.620Z,0.00
2018-09-24T01:33:30.538Z,0.00
2018-09-24T01:34:30.456Z,0.00
2018-09-24T01:35:30.384Z,0.00
2018-09-24T01:36:30.304Z,0.00
2018-09-24T01:37:30.223Z,0.00
2018-09-24T01:38:30.148Z,0.00
2018-09-24T01:39:30.070Z,0.00
2018-09-24T01:40:29.993Z,0.00
2018-09-24T01:41:29.916Z,0.00
2018-09-24T01:42:29.835Z,0.00
2018-09-24T01:43:29.761Z,0.00
2018-09-24T01:44:29.684Z,0.00
2018-09-24T01:45:29.606Z,0.00
2018-09-24T01:46:29.525Z,0.00
2018-09-24T01:47:29.450Z,0.00
2018-09-24T01:48:29.373Z,0.00
2018-09-24T01:49:29.294Z,0.00
2018-09-24T01:50:29.222Z,0.00
2018-09-24T01:51:29.139Z,0.00
2018-09-24T01:52:29.066Z,0.00
2018-09-24T01:53:28.987Z,0.00
2018-09-24T01:54:28.908Z,0.00
2018-09-24T01:55:28.833Z,0.00
2018-09-24T01:56:28.751Z,0.00
2018-09-24T01:57:28.673Z,0.00
2018-09-24T01:58:28.595Z,0.00
2018-09-24T01:59:28.514Z,0.00
2018-09-24T02:00:28.442Z,0.00
2018-09-24T02:01:28.364Z,0.00
2018-09-24T02:02:28.285Z,0.00
2018-09-24T02:03:28.207Z,0.00
2018-09-24T02:04:28.134Z,0.00
2018-09-24T02:05:28.049Z,0.00
2018-09-24T02:06:27.974Z,0.00
2018-09-24T02:07:27.899Z,0.00
2018-09-24T02:08:27.821Z,0.00
2018-09-24T02:09:27.742Z,0.00
2018-09-24T02:10:27.666Z,0.00
2018-09-24T02:11:27.592Z,0.00
2018-09-24T02:12:27.511Z,0.00
2018-09-24T02:13:27.431Z,0.00
2018-09-24T02:14:27.359Z,0.00
2018-09-24T02:15:27.276Z,0.00
2018-09-24T02:16:27.198Z,0.00
2018-09-24T02:17:27.122Z,0.00
2018-09-24T02:18:27.043Z,0.00
2018-09-24T02:19:26.967Z,0.00
2018-09-24T02:20:26.889Z,0.00
2018-09-24T02:21:26.814Z,0.00
2018-09-24T02:22:26.728Z,0.00
2018-09-24T02:23:26.655Z,0.00
2018-09-24T02:24:26.578Z,0.00
2018-09-24T02:25:26.504Z,0.00
2018-09-24T02:26:26.428Z,0.00
2018-09-24T02:27:26.346Z,0.00
2018-09-24T02:28:26.269Z,0.00
2018-09-24T02:29:26.190Z,0.00
2018-09-24T02:30:26.118Z,0.00
2018-09-24T02:31:26.060Z,0.00
2018-09-24T02:32:25.958Z,0.00
2018-09-24T02:33:25.879Z,0.00
2018-09-24T02:34:25.803Z,0.00
2018-09-24T02:35:25.734Z,0.00
2018-09-24T02:36:25.648Z,0.00
2018-09-24T02:37:25.571Z,0.00
2018-09-24T02:38:25.501Z,0.00
2018-09-24T02:39:25.416Z,0.00
2018-09-24T02:40:25.346Z,0.00
2018-09-24T02:41:25.260Z,0.00
2018-09-24T02:42:25.183Z,0.00
2018-09-24T02:43:25.109Z,0.00
2018-09-24T02:44:25.027Z,0.00
2018-09-24T02:45:24.949Z,0.00
2018-09-24T02:46:24.872Z,0.00
2018-09-24T02:47:24.796Z,0.00
2018-09-24T02:48:24.716Z,0.00
2018-09-24T02:49:24.647Z,0.00
2018-09-24T02:50:24.562Z,0.00
2018-09-24T02:51:24.484Z,0.00
2018-09-24T02:52:24.409Z,0.00
2018-09-24T02:53:24.330Z,0.00
2018-09-24T02:54:24.250Z,0.00
2018-09-24T02:55:24.174Z,0.00
2018-09-24T02:56:24.095Z,0.00
2018-09-24T02:57:24.021Z,0.00
2018-09-24T02:58:23.939Z,0.00
2018-09-24T02:59:23.865Z,0.00
2018-09-24T03:00:23.801Z,0.00
2018-09-24T03:01:23.779Z,0.00
2018-09-24T03:02:23.633Z,0.00
2018-09-24T03:03:23.551Z,0.00
2018-09-24T03:04:23.473Z,0.00
2018-09-24T03:05:23.394Z,0.00
2018-09-24T03:06:23.317Z,0.00
2018-09-24T03:07:23.242Z,0.00
2018-09-24T03:08:23.164Z,0.00
2018-09-24T03:09:23.084Z,0.00
2018-09-24T03:10:23.008Z,0.00
2018-09-24T03:11:22.928Z,0.00
2018-09-24T03:12:22.852Z,0.00
2018-09-24T03:13:22.773Z,0.00
2018-09-24T03:14:22.698Z,0.00
2018-09-24T03:15:22.618Z,0.00
2018-09-24T03:16:22.541Z,0.00
2018-09-24T03:17:22.460Z,0.00
2018-09-24T03:18:22.385Z,0.00
2018-09-24T03:19:22.307Z,0.00
2018-09-24T03:20:22.230Z,0.00
2018-09-24T03:21:22.152Z,0.00
2018-09-24T03:22:22.074Z,0.00
2018-09-24T03:23:22.002Z,0.00
2018-09-24T03:24:21.914Z,0.00
2018-09-24T03:25:21.840Z,0.00
2018-09-24T03:26:21.799Z,0.00
2018-09-24T03:27:21.684Z,0.00
2018-09-24T03:28:21.607Z,0.00
2018-09-24T03:29:21.526Z,0.00
2018-09-24T03:30:21.446Z,0.00
2018-09-24T03:31:21.371Z,0.00
2018-09-24T03:32:21.297Z,0.00
2018-09-24T03:33:21.218Z,0.00
2018-09-24T03:34:21.143Z,0.00
2018-09-24T03:35:21.062Z,0.00
2018-09-24T03:36:20.984Z,0.00
2018-09-24T03:37:20.904Z,0.00
2018-09-24T03:38:20.830Z,0.00
2018-09-24T03:39:20.750Z,0.00
2018-09-24T03:40:20.672Z,0.00
2018-09-24T03:41:20.592Z,0.00
2018-09-24T03:42:20.515Z,0.00
2018-09-24T03:43:20.441Z,0.00
2018-09-24T03:44:20.358Z,0.00
2018-09-24T03:45:20.280Z,0.00
2018-09-24T03:46:20.206Z,0.00
2018-09-24T03:47:20.125Z,0.00
2018-09-24T03:48:20.049Z,0.00
2018-09-24T03:49:19.973Z,0.00
2018-09-24T03:50:19.896Z,0.00
2018-09-24T03:51:19.813Z,0.00
2018-09-24T03:52:19.734Z,0.00
2018-09-24T03:53:19.658Z,0.00
2018-09-24T03:54:19.584Z,0.00
2018-09-24T03:55:19.502Z,0.00
2018-09-24T03:56:19.425Z,0.00
2018-09-24T03:57:19.346Z,0.00
2018-09-24T03:58:19.267Z,0.00
2018-09-24T03:59:19.190Z,0.00
2018-09-24T04:00:19.112Z,0.00
2018-09-24T04:01:19.035Z,0.00
2018-09-24T04:02:18.954Z,0.00
2018-09-24T04:03:18.879Z,0.00
2018-09-24T04:04:18.801Z,0.00
2018-09-24T04:05:18.721Z,0.00
2018-09-24T04:06:18.643Z,0.00
2018-09-24T04:07:18.564Z,0.00
2018-09-24T04:08:18.489Z,0.00
2018-09-24T04:09:18.465Z,0.00
2018-09-24T04:10:18.336Z,0.00
2018-09-24T04:11:18.254Z,0.00
2018-09-24T04:12:18.177Z,0.00
2018-09-24T04:13:18.097Z,0.00
2018-09-24T04:14:18.017Z,0.00
2018-09-24T04:15:17.940Z,0.00
2018-09-24T04:16:17.865Z,0.00
2018-09-24T04:17:17.789Z,0.00
2018-09-24T04:18:17.708Z,0.00
2018-09-24T04:19:17.631Z,0.00
2018-09-24T04:20:17.564Z,0.00
2018-09-24T04:21:17.476Z,0.00
2018-09-24T04:22:17.395Z,0.00
2018-09-24T04:23:17.332Z,0.00
2018-09-24T04:24:17.235Z,0.00
2018-09-24T04:25:17.159Z,0.00
2018-09-24T04:26:17.107Z,0.00
2018-09-24T04:27:17.004Z,0.00
2018-09-24T04:28:16.927Z,0.00
2018-09-24T04:29:16.848Z,0.00
2018-09-24T04:30:16.775Z,0.00
2018-09-24T04:31:16.691Z,0.00
2018-09-24T04:32:16.618Z,0.00
2018-09-24T04:33:16.542Z,0.00
2018-09-24T04:34:16.464Z,0.00
2018-09-24T04:35:16.387Z,0.00
2018-09-24T04:36:16.305Z,0.00
2018-09-24T04:37:16.224Z,0.00
2018-09-24T04:38:16.145Z,0.00
2018-09-24T04:39:16.065Z,0.00
2018-09-24T04:40:15.988Z,0.00
2018-09-24T04:41:15.911Z,0.00
2018-09-24T04:42:15.835Z,0.00
2018-09-24T04:43:15.754Z,0.00
2018-09-24T04:44:15.677Z,0.00
2018-09-24T04:45:15.598Z,0.00
2018-09-24T04:46:15.524Z,0.00
2018-09-24T04:47:15.441Z,0.00
2018-09-24T04:48:15.365Z,0.00
2018-09-24T04:49:15.374Z,0.00
2018-09-24T04:50:15.209Z,0.00
2018-09-24T04:51:15.129Z,0.00
2018-09-24T04:52:15.050Z,0.00
2018-09-24T04:53:14.971Z,0.00
2018-09-24T04:54:14.894Z,4.00
2018-09-24T04:55:14.816Z,0.00
2018-09-24T04:56:14.737Z,0.00
2018-09-24T04:57:14.658Z,4.00
2018-09-24T04:58:14.593Z,0.00
2018-09-24T04:59:14.504Z,4.00
2018-09-24T05:00:14.428Z,4.00
2018-09-24T05:01:14.347Z,8.00
2018-09-24T05:02:14.267Z,8.00
2018-09-24T05:03:14.189Z,8.00
2018-09-24T05:04:14.110Z,8.00
2018-09-24T05:05:14.033Z,12.00
2018-09-24T05:06:13.954Z,16.00
2018-09-24T05:07:13.879Z,16.00
2018-09-24T05:08:13.794Z,20.00
2018-09-24T05:09:13.716Z,20.00
2018-09-24T05:10:13.678Z,24.00
2018-09-24T05:11:13.563Z,28.00
2018-09-24T05:12:13.484Z,36.00
2018-09-24T05:13:13.406Z,40.00
2018-09-24T05:14:13.382Z,44.00
2018-09-24T05:15:13.249Z,52.00
2018-09-24T05:16:13.239Z,56.00
2018-09-24T05:17:13.088Z,64.00
2018-09-24T05:18:13.014Z,72.00
2018-09-24T05:19:12.935Z,80.00
2018-09-24T05:20:12.918Z,92.00
2018-09-24T05:21:12.776Z,96.00
2018-09-24T05:22:12.701Z,108.00
2018-09-24T05:23:12.622Z,116.00
2018-09-24T05:24:12.544Z,128.00
2018-09-24T05:25:12.465Z,140.00
2018-09-24T05:26:12.394Z,148.00
2018-09-24T05:27:12.349Z,160.00
2018-09-24T05:28:12.231Z,172.00
2018-09-24T05:29:12.155Z,184.00
2018-09-24T05:30:12.074Z,200.00
2018-09-24T05:31:11.994Z,208.00
2018-09-24T05:32:11.921Z,224.00
2018-09-24T05:33:11.840Z,232.00
2018-09-24T05:34:11.759Z,248.00
2018-09-24T05:35:11.682Z,264.00
2018-09-24T05:36:11.604Z,276.00
2018-09-24T05:37:11.525Z,292.00
2018-09-24T05:38:11.447Z,308.00
2018-09-24T05:39:11.368Z,320.00
2018-09-24T05:40:11.290Z,336.00
2018-09-24T05:41:11.254Z,348.00
2018-09-24T05:42:11.133Z,368.00
2018-09-24T05:43:11.054Z,384.00
2018-09-24T05:44:10.977Z,396.00
2018-09-24T05:45:10.897Z,412.00
2018-09-24T05:46:10.822Z,428.00
2018-09-24T05:47:10.741Z,444.00
2018-09-24T05:48:10.663Z,460.00
2018-09-24T05:49:10.585Z,472.00
2018-09-24T05:50:10.506Z,488.00
2018-09-24T05:51:10.431Z,500.00
2018-09-24T05:52:10.351Z,516.00
2018-09-24T05:53:10.271Z,528.00
2018-09-24T05:54:10.213Z,540.00
2018-09-24T05:55:10.116Z,556.00
2018-09-24T05:56:10.038Z,572.00
2018-09-24T05:57:09.961Z,584.00
2018-09-24T05:58:09.879Z,592.00
2018-09-24T05:59:09.803Z,608.00
2018-09-24T06:00:09.723Z,620.00
2018-09-24T06:01:09.650Z,612.00
2018-09-24T06:02:09.567Z,700.00
2018-09-24T06:03:09.491Z,748.00
2018-09-24T06:04:09.413Z,728.00
2018-09-24T06:05:09.376Z,724.00
2018-09-24T06:06:09.256Z,680.00
2018-09-24T06:07:09.178Z,704.00
2018-09-24T06:08:09.102Z,748.00
2018-09-24T06:09:09.020Z,736.00
2018-09-24T06:10:08.936Z,736.00
2018-09-24T06:11:08.866Z,728.00
2018-09-24T06:12:08.787Z,740.00
2018-09-24T06:13:08.711Z,744.00
2018-09-24T06:14:08.629Z,848.00
2018-09-24T06:15:08.551Z,1128.00
2018-09-24T06:16:08.473Z,1244.00
2018-09-24T06:17:08.394Z,1240.00
2018-09-24T06:18:08.317Z,912.00
2018-09-24T06:19:08.286Z,736.00
2018-09-24T06:20:08.164Z,768.00
2018-09-24T06:21:08.083Z,800.00
2018-09-24T06:22:08.004Z,784.00
2018-09-24T06:23:07.932Z,780.00
2018-09-24T06:24:07.846Z,860.00
2018-09-24T06:25:07.769Z,872.00
2018-09-24T06:26:07.691Z,892.00
2018-09-24T06:27:07.613Z,824.00
2018-09-24T06:28:07.536Z,788.00
2018-09-24T06:29:07.459Z,812.00
2018-09-24T06:30:07.381Z,840.00
2018-09-24T06:31:07.302Z,932.00
2018-09-24T06:32:07.224Z,956.00
2018-09-24T06:33:07.144Z,968.00
2018-09-24T06:34:07.112Z,984.00
2018-09-24T06:35:06.988Z,996.00
2018-09-24T06:36:06.912Z,1000.00
2018-09-24T06:37:06.836Z,1000.00
2018-09-24T06:38:06.759Z,1020.00
2018-09-24T06:39:06.683Z,1032.00
2018-09-24T06:40:06.629Z,1044.00
2018-09-24T06:41:06.526Z,1056.00
2018-09-24T06:42:06.444Z,1068.00
2018-09-24T06:43:06.366Z,1084.00
2018-09-24T06:44:06.288Z,1096.00
2018-09-24T06:45:06.213Z,1120.00
2018-09-24T06:46:06.129Z,1152.00
2018-09-24T06:47:06.054Z,1148.00
2018-09-24T06:48:05.975Z,1204.00
2018-09-24T06:49:05.899Z,1192.00
2018-09-24T06:50:05.819Z,1168.00
2018-09-24T06:51:05.743Z,1152.00
2018-09-24T06:52:05.668Z,1144.00
2018-09-24T06:53:05.590Z,1144.00
2018-09-24T06:54:05.515Z,1148.00
2018-09-24T06:55:05.430Z,1160.00
2018-09-24T06:56:05.356Z,1172.00
2018-09-24T06:57:05.274Z,1184.00
2018-09-24T06:58:05.195Z,1144.00
2018-09-24T06:59:05.121Z,1048.00
2018-09-24T07:00:05.102Z,1108.00
2018-09-24T07:01:05.008Z,1216.00
2018-09-24T07:02:04.889Z,1220.00
2018-09-24T07:03:04.809Z,1220.00
2018-09-24T07:04:04.734Z,1212.00
2018-09-24T07:05:04.655Z,1220.00
2018-09-24T07:06:04.575Z,1228.00
2018-09-24T07:07:04.499Z,1260.00
2018-09-24T07:08:04.421Z,1252.00
2018-09-24T07:09:04.343Z,1276.00
2018-09-24T07:10:04.267Z,1284.00
2018-09-24T07:11:04.188Z,1320.00
2018-09-24T07:12:04.111Z,1304.00
2018-09-24T07:13:04.032Z,1280.00
2018-09-24T07:14:03.958Z,1300.00
2018-09-24T07:15:03.879Z,1332.00
2018-09-24T07:16:03.800Z,1328.00
2018-09-24T07:17:03.722Z,1320.00
2018-09-24T07:18:03.649Z,1324.00
2018-09-24T07:19:03.570Z,1348.00
2018-09-24T07:20:03.495Z,1344.00
2018-09-24T07:21:03.412Z,1328.00
2018-09-24T07:22:03.335Z,1324.00
2018-09-24T07:23:03.260Z,1328.00
2018-09-24T07:24:03.180Z,1336.00
2018-09-24T07:25:03.104Z,1340.00
2018-09-24T07:26:03.027Z,1332.00
2018-09-24T07:27:02.948Z,1348.00
2018-09-24T07:28:02.924Z,1348.00
2018-09-24T07:29:02.793Z,1356.00
2018-09-24T07:30:02.716Z,1356.00
2018-09-24T07:31:02.651Z,1364.00
2018-09-24T07:32:02.561Z,1376.00
2018-09-24T07:33:02.516Z,1404.00
2018-09-24T07:34:02.415Z,1380.00
2018-09-24T07:35:02.331Z,1380.00
2018-09-24T07:36:02.253Z,1396.00
2018-09-24T07:37:02.177Z,1444.00
2018-09-24T07:38:02.099Z,1388.00
2018-09-24T07:39:02.025Z,1392.00
2018-09-24T07:40:01.951Z,1400.00
2018-09-24T07:41:01.869Z,1404.00
2018-09-24T07:42:01.789Z,1408.00
2018-09-24T07:43:01.779Z,1412.00
2018-09-24T07:44:01.638Z,1428.00
2018-09-24T07:45:01.561Z,1440.00
2018-09-24T07:46:01.480Z,1444.00
2018-09-24T07:47:01.405Z,1448.00
2018-09-24T07:48:01.325Z,1456.00
2018-09-24T07:49:01.250Z,1476.00
2018-09-24T07:50:01.177Z,1488.00
2018-09-24T07:51:01.106Z,1516.00
2018-09-24T07:52:01.037Z,1612.00
2018-09-24T07:53:00.940Z,1856.00
2018-09-24T07:54:00.929Z,1944.00
2018-09-24T07:55:00.790Z,2132.00
2018-09-24T07:56:00.711Z,2748.00
2018-09-24T07:57:00.634Z,2412.00
2018-09-24T07:58:00.559Z,1856.00
2018-09-24T07:59:00.483Z,1684.00
2018-09-24T08:00:00.407Z,1600.00
2018-09-24T08:01:00.382Z,1636.00
2018-09-24T08:02:00.252Z,2504.00
2018-09-24T08:03:00.176Z,2704.00
2018-09-24T08:04:00.112Z,1476.00
2018-09-24T08:05:00.021Z,1624.00
2018-09-24T08:05:59.948Z,1640.00
2018-09-24T08:06:59.869Z,1660.00
2018-09-24T08:07:59.794Z,1728.00
2018-09-24T08:08:59.717Z,1668.00
2018-09-24T08:09:59.638Z,1660.00
2018-09-24T08:10:59.566Z,2024.00
2018-09-24T08:11:59.487Z,1760.00
2018-09-24T08:12:59.476Z,1764.00
2018-09-24T08:13:59.334Z,1692.00
2018-09-24T08:14:59.256Z,1656.00
2018-09-24T08:15:59.181Z,1672.00
2018-09-24T08:16:59.104Z,1672.00
2018-09-24T08:17:59.027Z,1688.00
2018-09-24T08:18:58.954Z,1784.00
2018-09-24T08:19:58.876Z,1800.00
2018-09-24T08:20:58.817Z,1848.00
2018-09-24T08:21:58.723Z,2116.00
2018-09-24T08:22:58.647Z,2764.00
2018-09-24T08:23:58.569Z,2900.00
2018-09-24T08:24:58.496Z,2608.00
2018-09-24T08:25:58.428Z,2548.00
2018-09-24T08:26:58.345Z,1984.00
2018-09-24T08:27:58.268Z,2036.00
2018-09-24T08:28:58.245Z,2264.00
2018-09-24T08:29:58.119Z,3468.00
2018-09-24T08:30:58.036Z,4600.00
2018-09-24T08:31:57.962Z,4436.00
2018-09-24T08:32:57.889Z,4080.00
2018-09-24T08:33:57.809Z,3668.00
2018-09-24T08:34:57.733Z,3220.00
2018-09-24T08:35:57.657Z,2988.00
2018-09-24T08:36:57.579Z,3012.00
2018-09-24T08:37:57.532Z,3720.00
2018-09-24T08:38:57.429Z,5216.00
2018-09-24T08:39:57.353Z,5500.00
2018-09-24T08:40:57.278Z,4940.00
2018-09-24T08:41:57.202Z,4232.00
2018-09-24T08:42:57.125Z,4048.00
2018-09-24T08:43:57.071Z,4876.00
2018-09-24T08:44:56.973Z,4832.00
2018-09-24T08:45:56.899Z,4752.00
2018-09-24T08:46:56.822Z,4220.00
2018-09-24T08:47:56.746Z,4192.00
2018-09-24T08:48:56.672Z,4368.00
2018-09-24T08:49:56.596Z,3500.00
2018-09-24T08:50:56.519Z,4148.00
2018-09-24T08:51:56.447Z,4744.00
2018-09-24T08:52:56.368Z,6052.00
2018-09-24T08:53:56.295Z,8076.00
2018-09-24T08:54:56.218Z,7648.00
2018-09-24T08:55:56.144Z,2292.00
2018-09-24T08:56:56.101Z,9188.00
2018-09-24T08:57:56.067Z,8380.00
2018-09-24T08:58:55.931Z,8100.00
2018-09-24T08:59:55.841Z,7288.00
2018-09-24T09:00:55.765Z,9036.00
2018-09-24T09:01:55.692Z,3884.00
2018-09-24T09:02:55.619Z,5652.00
2018-09-24T09:03:55.543Z,5764.00
2018-09-24T09:04:55.469Z,4916.00
2018-09-24T09:05:55.390Z,3944.00
2018-09-24T09:06:55.317Z,7448.00
2018-09-24T09:07:55.244Z,5440.00
2018-09-24T09:08:55.168Z,4584.00
2018-09-24T09:09:55.093Z,6000.00
2018-09-24T09:10:55.014Z,6908.00
2018-09-24T09:11:54.946Z,5196.00
2018-09-24T09:12:54.871Z,4604.00
2018-09-24T09:13:54.798Z,4924.00
2018-09-24T09:14:54.722Z,4988.00
2018-09-24T09:15:54.660Z,4456.00
2018-09-24T09:16:54.577Z,3912.00
2018-09-24T09:17:54.499Z,3560.00
2018-09-24T09:18:54.426Z,3988.00
2018-09-24T09:19:54.353Z,3324.00
2018-09-24T09:20:54.280Z,2416.00
2018-09-24T09:21:54.219Z,1920.00
2018-09-24T09:22:54.132Z,2108.00
2018-09-24T09:23:54.064Z,6576.00
2018-09-24T09:24:53.980Z,6360.00
2018-09-24T09:25:53.909Z,6308.00
2018-09-24T09:26:53.837Z,7212.00
2018-09-24T09:27:53.762Z,8436.00
2018-09-24T09:28:53.688Z,5508.00
2018-09-24T09:29:53.612Z,6364.00
2018-09-24T09:30:53.540Z,6816.00
2018-09-24T09:31:53.465Z,6584.00
2018-09-24T09:32:53.391Z,5516.00
2018-09-24T09:33:53.320Z,5472.00
2018-09-24T09:34:53.245Z,3020.00
2018-09-24T09:35:53.171Z,9384.00
2018-09-24T09:36:53.096Z,4464.00
2018-09-24T09:37:53.022Z,4704.00
2018-09-24T09:38:52.946Z,5496.00
2018-09-24T09:39:52.879Z,7072.00
2018-09-24T09:40:52.809Z,7308.00
2018-09-24T09:41:52.728Z,2616.00
2018-09-24T09:42:52.657Z,7068.00
2018-09-24T09:43:52.592Z,7872.00
2018-09-24T09:44:52.567Z,7632.00
2018-09-24T09:45:52.433Z,3008.00
2018-09-24T09:46:52.423Z,6308.00
2018-09-24T09:47:52.286Z,8716.00
2018-09-24T09:48:52.212Z,5724.00
2018-09-24T09:49:52.140Z,7808.00
2018-09-24T09:50:52.066Z,4000.00
2018-09-24T09:51:51.993Z,4020.00
2018-09-24T09:52:51.914Z,3360.00
2018-09-24T09:53:51.847Z,2732.00
2018-09-24T09:54:51.772Z,2680.00
2018-09-24T09:55:51.700Z,4712.00
2018-09-24T09:56:51.629Z,3732.00
2018-09-24T09:57:51.549Z,5440.00
2018-09-24T09:58:51.482Z,10040.00
2018-09-24T09:59:51.408Z,10552.00
2018-09-24T10:00:51.331Z,7468.00
2018-09-24T10:01:51.259Z,6748.00
2018-09-24T10:02:51.186Z,8484.00
2018-09-24T10:03:51.114Z,6672.00
2018-09-24T10:04:51.088Z,7704.00
2018-09-24T10:05:50.971Z,7132.00
2018-09-24T10:06:50.893Z,5956.00
2018-09-24T10:07:50.820Z,4872.00
2018-09-24T10:08:50.747Z,3824.00
2018-09-24T10:09:50.673Z,3332.00
2018-09-24T10:10:50.624Z,3156.00
2018-09-24T10:11:50.532Z,3844.00
2018-09-24T10:12:50.462Z,5652.00
2018-09-24T10:13:50.381Z,5832.00
2018-09-24T10:14:50.308Z,4144.00
2018-09-24T10:15:50.235Z,3308.00
2018-09-24T10:16:50.163Z,3220.00
2018-09-24T10:17:50.117Z,3188.00
2018-09-24T10:18:50.016Z,3240.00
2018-09-24T10:19:49.940Z,3224.00
2018-09-24T10:20:49.866Z,3416.00
2018-09-24T10:21:49.795Z,4340.00
2018-09-24T10:22:49.719Z,4304.00
2018-09-24T10:23:49.648Z,4128.00
2018-09-24T10:24:49.579Z,4016.00
2018-09-24T10:25:49.499Z,3712.00
2018-09-24T10:26:49.424Z,3032.00
2018-09-24T10:27:49.353Z,2600.00
2018-09-24T10:28:49.287Z,2196.00
2018-09-24T10:29:49.209Z,1744.00
2018-09-24T10:30:49.132Z,1580.00
2018-09-24T10:31:49.056Z,2096.00
2018-09-24T10:32:48.983Z,3344.00
2018-09-24T10:33:48.977Z,4412.00
2018-09-24T10:34:48.836Z,5332.00
2018-09-24T10:35:48.764Z,5900.00
2018-09-24T10:36:48.691Z,5884.00
2018-09-24T10:37:48.614Z,5984.00
2018-09-24T10:38:48.542Z,6404.00
2018-09-24T10:39:48.582Z,6812.00
2018-09-24T10:40:48.391Z,7360.00
2018-09-24T10:41:48.319Z,7144.00
2018-09-24T10:42:48.250Z,6420.00
2018-09-24T10:43:48.172Z,4748.00
2018-09-24T10:44:48.097Z,3708.00
2018-09-24T10:45:48.021Z,3520.00
2018-09-24T10:46:47.949Z,2568.00
2018-09-24T10:47:47.876Z,2532.00
2018-09-24T10:48:47.803Z,2868.00
2018-09-24T10:49:47.731Z,2704.00
2018-09-24T10:50:47.655Z,2460.00
2018-09-24T10:51:47.580Z,2212.00
2018-09-24T10:52:47.524Z,2932.00
2018-09-24T10:53:47.439Z,4888.00
2018-09-24T10:54:47.357Z,5520.00
2018-09-24T10:55:47.324Z,5008.00
2018-09-24T10:56:47.211Z,4860.00
2018-09-24T10:57:47.135Z,9680.00
2018-09-24T10:58:47.064Z,6220.00
2018-09-24T10:59:46.993Z,8252.00
2018-09-24T11:00:46.914Z,8732.00
2018-09-24T11:01:46.841Z,7164.00
2018-09-24T11:02:46.770Z,7076.00
2018-09-24T11:03:46.697Z,7932.00
2018-09-24T11:04:46.649Z,8224.00
2018-09-24T11:05:46.547Z,6580.00
2018-09-24T11:06:46.471Z,6156.00
2018-09-24T11:07:46.402Z,6760.00
2018-09-24T11:08:46.325Z,7940.00
2018-09-24T11:09:46.254Z,9476.00
2018-09-24T11:10:46.176Z,19616.00
2018-09-24T11:11:46.105Z,7204.00
2018-09-24T11:12:46.028Z,5964.00
2018-09-24T11:13:45.955Z,4936.00
2018-09-24T11:14:45.885Z,6444.00
2018-09-24T11:15:45.865Z,9440.00
2018-09-24T11:16:45.834Z,10168.00
2018-09-24T11:17:46.042Z,8984.00
2018-09-24T11:18:45.588Z,7836.00
2018-09-24T11:19:45.520Z,7048.00
2018-09-24T11:20:45.448Z,5560.00
2018-09-24T11:21:45.371Z,4828.00
2018-09-24T11:22:45.295Z,5604.00
2018-09-24T11:23:45.298Z,6416.00
2018-09-24T11:24:45.149Z,6132.00
2018-09-24T11:25:45.074Z,4628.00
2018-09-24T11:26:45.004Z,3640.00
2018-09-24T11:27:44.927Z,3212.00
2018-09-24T11:28:44.851Z,2980.00
2018-09-24T11:29:44.812Z,4828.00
2018-09-24T11:30:44.712Z,7160.00
2018-09-24T11:31:44.632Z,10812.00
2018-09-24T11:32:44.556Z,12856.00
2018-09-24T11:33:44.486Z,8920.00
2018-09-24T11:34:44.410Z,7808.00
2018-09-24T11:35:44.336Z,8516.00
2018-09-24T11:36:44.263Z,8468.00
2018-09-24T11:37:44.192Z,15544.00
2018-09-24T11:38:44.116Z,11196.00
2018-09-24T11:39:44.045Z,10176.00
2018-09-24T11:40:43.975Z,8848.00
2018-09-24T11:41:43.904Z,8408.00
2018-09-24T11:42:43.831Z,8524.00
2018-09-24T11:43:43.751Z,9560.00
2018-09-24T11:44:43.680Z,8744.00
2018-09-24T11:45:43.606Z,8820.00
2018-09-24T11:46:43.566Z,7680.00
2018-09-24T11:47:43.458Z,7116.00
2018-09-24T11:48:43.383Z,8700.00
2018-09-24T11:49:43.318Z,8496.00
2018-09-24T11:50:43.239Z,6440.00
2018-09-24T11:51:43.169Z,5836.00
2018-09-24T11:52:43.092Z,4520.00
2018-09-24T11:53:43.020Z,4284.00
2018-09-24T11:54:42.947Z,4332.00
2018-09-24T11:55:42.872Z,4420.00
2018-09-24T11:56:42.800Z,3592.00
2018-09-24T11:57:42.728Z,3640.00
2018-09-24T11:58:42.655Z,4576.00
2018-09-24T11:59:42.581Z,5324.00
2018-09-24T12:00:42.506Z,5616.00
2018-09-24T12:01:42.432Z,6784.00
2018-09-24T12:02:42.363Z,31808.00
2018-09-24T12:03:42.291Z,5568.00
2018-09-24T12:04:42.215Z,13992.00
2018-09-24T12:05:42.141Z,20480.00
2018-09-24T12:06:42.069Z,3680.00
2018-09-24T12:07:42.001Z,2776.00
2018-09-24T12:08:41.921Z,2724.00
2018-09-24T12:09:41.848Z,2596.00
2018-09-24T12:10:41.825Z,3148.00
2018-09-24T12:11:41.703Z,4216.00
2018-09-24T12:12:41.629Z,6484.00
2018-09-24T12:13:41.550Z,13460.00
2018-09-24T12:14:41.479Z,7116.00
2018-09-24T12:15:41.410Z,7308.00
2018-09-24T12:16:41.339Z,6048.00
2018-09-24T12:17:41.267Z,5996.00
2018-09-24T12:18:41.191Z,4960.00
2018-09-24T12:19:41.119Z,5764.00
2018-09-24T12:20:41.043Z,7432.00
2018-09-24T12:21:40.974Z,7384.00
2018-09-24T12:22:40.899Z,7164.00
2018-09-24T12:23:40.826Z,5712.00
2018-09-24T12:24:40.752Z,4820.00
2018-09-24T12:25:40.678Z,7224.00
2018-09-24T12:26:40.608Z,4676.00
2018-09-24T12:27:40.533Z,4128.00
2018-09-24T12:28:40.462Z,3756.00
2018-09-24T12:29:40.386Z,3416.00
2018-09-24T12:30:40.313Z,3056.00
2018-09-24T12:31:40.241Z,2624.00
2018-09-24T12:32:40.172Z,2264.00
2018-09-24T12:33:40.096Z,2104.00
2018-09-24T12:34:40.022Z,1848.00
2018-09-24T12:35:39.947Z,1492.00